הכול
Archerfield Airport (Archerfield, Queensland) YBAF מזג אוויר
|
Archerfield, Queensland (YBAF)
Partly cloudy
רוחות קלות |
|
22 °C |
YBAF Terminal Area Forecast
| Here is the undecoded forecast: 2026/09/04 05:11 YBAF 040511Z 0405/0418 27010KT CAVOK FM040600 02010KT CAVOK FM040900 10007KT CAVOK BECMG 0410/0412 18006KT 9999 SCT005 BECMG 0413/0415 21006KT 9999 MIFG BKN005 TEMPO 0412/0414 9999 BKN005 PROB40 0415/0418 0300 FG BKN001 RMK T 32 22 19 17 Q 1016 1018 1020 1020 |
Recent YBAF METAR history
| Date | Time (AEST) | Flight Rules | Wind Dir. | Speed | Type | Height AGL (ft) | Visibility | Temp (°C) | Temp (°F) | Dew Point (°C) | Dew Point (°F) | Rel. Humid. | Pressure | Density Altitude | Remarks |
|---|---|---|---|---|---|---|---|---|---|---|---|---|---|---|---|
| 04-ספט | 19:00 | MVFR | 70° | 8 kt | Broken |
1,600 |
10000 meters | 22° | 71° | 19° | 66° | 83% | 1019 mb | 732 ft | |
| 04-ספט | 18:00 | VFR | 70° | 9 kt | 10000 meters | 23° | 73° | 17° | 62° | 69% | 1018 mb | 881 ft | |||
| 04-ספט | 17:00 | VFR | 70° | 9 kt | 10000 meters | 26° | 78° | 15° | 59° | 51% | 1017 mb | 1,271 ft | |||
| 04-ספט | 16:00 | VFR | 80° | 11 kt | 10000 meters | 28° | 82° | 14° | 57° | 42% | 1016 mb | 1,541 ft | |||
| 04-ספט | 15:00 | VFR | 270° | 11 kt | 10000 meters | 32° | 89° | 5° | 41° | 18% | 1016 mb | 2,021 ft | |||
| 04-ספט | 14:00 | VFR | 290° | 7 kt | 10000 meters | 33° | 91° | 8° | 46° | 21% | 1016 mb | 2,141 ft | |||
| 04-ספט | 13:00 | VFR | 260° | 9 kt | 10000 meters | 32° | 89° | 9° | 48° | 24% | 1017 mb | 1,991 ft | |||
| 04-ספט | 12:00 | VFR | 270° | 7 kt | 10000 meters | 31° | 87° | 8° | 46° | 24% | 1018 mb | 1,841 ft | |||
| 04-ספט | 11:00 | VFR | 270° | 7 kt | 10000 meters | 29° | 84° | 10° | 50° | 31% | 1019 mb | 1,572 ft | |||
| 04-ספט | 10:00 | VFR | 240° | 8 kt | 10000 meters | 27° | 80° | 12° | 53° | 39% | 1020 mb | 1,302 ft | |||
| 04-ספט | 09:00 | VFR | 230° | 9 kt | 10000 meters | 25° | 77° | 12° | 53° | 44% | 1020 mb | 1,062 ft | |||
| 04-ספט | 08:00 | VFR | 170° | 5 kt | 10000 meters |
20° | 68° | 14° | 57° | 68% | 1020 mb | 462 ft | |||
| 04-ספט | 07:00 | VFR | 200° | 3 kt | 9000 meters |
15° | 59° | 13° | 55° | 88% | 1020 mb | -138 ft | |||
| 04-ספט | 06:00 | VFR | Calm | 10000 meters | 13° | 55° | 12° | 53° | 94% | 1019 mb | -348 ft | ||||
| 04-ספט | 05:00 | VFR | Calm | 10000 meters | 13° | 55° | 12° | 53° | 94% | 1018 mb | -319 ft | ||||
| 04-ספט | 04:00 | VFR | 190° | 3 kt | 10000 meters | 14° | 57° | 14° | 57° | 100% | 1018 mb | -199 ft | |||
| 04-ספט | 03:00 | VFR | 190° | 4 kt | 10000 meters | 14° | 57° | 13° | 55° | 94% | 1018 mb | -199 ft | |||
| 04-ספט | 02:00 | VFR | 180° | 6 kt | 10000 meters | 16° | 60° | 14° | 57° | 88% | 1018 mb | 41 ft | |||
| 04-ספט | 01:00 | VFR | 180° | 6 kt | 10000 meters | 16° | 60° | 15° | 59° | 94% | 1018 mb | 41 ft | |||
| 04-ספט | 00:00 | VFR | 180° | 6 kt | 10000 meters | 17° | 62° | 15° | 59° | 88% | 1018 mb | 161 ft | |||
| 03-ספט | 23:00 | VFR | 40° | 4 kt | 10000 meters | 18° | 64° | 15° | 59° | 83% | 1018 mb | 281 ft | |||
| 03-ספט | 22:00 | VFR | 50° | 5 kt | 10000 meters | 19° | 66° | 16° | 60° | 83% | 1017 mb | 431 ft | |||
| 03-ספט | 21:00 | VFR | 30° | 8 kt | 10000 meters | 20° | 68° | 16° | 60° | 78% | 1017 mb | 551 ft | |||
| 03-ספט | 20:00 | VFR | 20° | 9 kt | 10000 meters | 21° | 69° | 16° | 60° | 73% | 1017 mb | 671 ft |
כניסה לאתר
| אין תמיכה בדפדפן שלך. שדרג את הדפדפן שלך |
